SAWU/RZA METAR and TAF weather

Enter ICAO airport designator
Station Type Date Time Source
SAWU METAR 2021/12/05 23:43 UTC NOAA

SAWU 052343Z 09020KT 9999 FEW030 15/07 Q1014


Station Type Date Time Source
SAWU Decoded METAR 2021/12/05 23:43 UTC NOAA

Santa Cruz Aerodrome, Argentina (SAWU) 50-01S 068-34W 111M
Dec 05, 2021 - 06:43 PM EST / 2021.12.05 2343 UTC
Wind: from the E (090 degrees) at 23 MPH (20 KT):0
Visibility: greater than 7 mile(s):0
Sky conditions: mostly clear
Temperature: 59 F (15 C)
Dew Point: 44 F (7 C)
Relative Humidity: 58%
Pressure (altimeter): 29.94 in. Hg (1014 hPa)
ob: SAWU 052343Z 09020KT 9999 FEW030 15/07 Q1014
cycle: 23

Station Type Date Time Source
SAWU TAF UTC NOAA

Error!

Example: see airport list